createdAt,value
2024-02-06T00:01:30.603Z,98453.00
2024-02-06T00:03:59.608Z,98458.00
2024-02-06T00:06:28.509Z,98459.00
2024-02-06T00:08:58.883Z,98468.00
2024-02-06T00:11:27.938Z,98461.00
2024-02-06T00:14:03.469Z,98461.00
2024-02-06T00:16:37.152Z,98456.00
2024-02-06T00:19:10.960Z,98463.00
2024-02-06T00:21:40.621Z,98472.00
2024-02-06T00:24:16.210Z,98470.00
2024-02-06T00:26:48.195Z,98481.00
2024-02-06T00:29:26.812Z,98477.00
2024-02-06T00:32:07.741Z,98478.00
2024-02-06T00:34:40.038Z,98482.00
2024-02-06T00:37:20.260Z,98477.00
2024-02-06T00:40:00.248Z,98481.00
2024-02-06T00:42:36.390Z,98480.00
2024-02-06T00:45:12.047Z,98492.00
2024-02-06T00:47:54.033Z,98487.00
2024-02-06T00:50:27.104Z,98495.00
2024-02-06T00:52:59.191Z,98500.00
2024-02-06T00:55:36.749Z,98494.00
2024-02-06T00:58:17.310Z,98504.00
2024-02-06T01:00:53.155Z,98504.00
2024-02-06T01:03:24.731Z,98504.00
2024-02-06T01:05:53.504Z,98503.00
2024-02-06T01:08:29.945Z,98506.00
2024-02-06T01:11:12.271Z,98514.00
2024-02-06T01:13:47.158Z,98511.00
2024-02-06T01:16:23.187Z,98517.00
2024-02-06T01:18:57.234Z,98517.00
2024-02-06T01:21:28.841Z,98511.00
2024-02-06T01:23:58.193Z,98518.00
2024-02-06T01:26:39.825Z,98526.00
2024-02-06T01:29:21.502Z,98523.00
2024-02-06T01:31:56.519Z,98524.00
2024-02-06T01:34:39.381Z,98521.00
2024-02-06T01:37:12.977Z,98540.00
2024-02-06T01:39:47.982Z,98526.00
2024-02-06T01:42:26.386Z,98529.00
2024-02-06T01:44:58.277Z,98539.00
2024-02-06T01:47:30.609Z,98543.00
2024-02-06T01:50:13.192Z,98546.00
2024-02-06T01:52:45.661Z,98546.00
2024-02-06T01:55:19.756Z,98544.00
2024-02-06T01:57:51.525Z,98556.00
2024-02-06T02:00:24.280Z,98546.00
2024-02-06T02:03:00.077Z,98552.00
2024-02-06T02:05:37.561Z,98549.00
2024-02-06T02:08:10.117Z,98557.00
2024-02-06T02:10:42.351Z,98547.00
2024-02-06T02:13:19.196Z,98565.00
2024-02-06T02:15:51.047Z,98561.00
2024-02-06T02:18:25.376Z,98567.00
2024-02-06T02:21:00.985Z,98562.00
2024-02-06T02:23:55.366Z,98572.00
2024-02-06T02:26:29.016Z,98564.00
2024-02-06T02:29:01.314Z,98575.00
2024-02-06T02:31:33.793Z,98575.00
2024-02-06T02:34:11.403Z,98579.00
2024-02-06T02:36:47.324Z,98584.00
2024-02-06T02:39:18.231Z,98577.00
2024-02-06T02:41:58.232Z,98598.00
2024-02-06T02:44:30.172Z,98602.00
2024-02-06T02:47:08.341Z,98598.00
2024-02-06T02:49:42.351Z,98597.00
2024-02-06T02:52:24.114Z,98592.00
2024-02-06T02:54:58.529Z,98596.00
2024-02-06T02:57:35.917Z,98598.00
2024-02-06T03:00:13.672Z,98608.00
2024-02-06T03:05:33.449Z,98606.00
2024-02-06T03:08:05.602Z,98609.00
2024-02-06T03:10:39.463Z,98602.00
2024-02-06T03:13:18.618Z,98622.00
2024-02-06T03:16:04.311Z,98609.00
2024-02-06T03:18:38.599Z,98610.00
2024-02-06T03:21:14.118Z,98613.00
2024-02-06T03:24:00.180Z,98609.00
2024-02-06T03:26:32.211Z,98619.00
2024-02-06T03:29:04.910Z,98626.00
2024-02-06T03:31:37.198Z,98623.00
2024-02-06T03:34:10.999Z,98625.00
2024-02-06T03:36:49.154Z,98629.00
2024-02-06T03:39:25.053Z,98629.00
2024-02-06T03:41:57.436Z,98636.00
2024-02-06T03:44:30.693Z,98633.00
2024-02-06T03:47:01.871Z,98639.00
2024-02-06T03:49:32.687Z,98645.00
2024-02-06T03:52:08.986Z,98645.00
2024-02-06T03:54:38.073Z,98650.00
2024-02-06T03:57:08.620Z,98654.00
2024-02-06T03:59:37.633Z,98657.00
2024-02-06T04:02:16.903Z,98650.00
2024-02-06T04:04:48.028Z,98660.00
2024-02-06T04:07:28.294Z,98651.00
2024-02-06T04:10:07.260Z,98656.00
2024-02-06T04:12:42.214Z,98658.00
2024-02-06T04:15:15.748Z,98658.00
2024-02-06T04:17:46.980Z,98658.00
2024-02-06T04:20:20.143Z,98667.00
2024-02-06T04:22:50.021Z,98659.00
2024-02-06T04:25:24.642Z,98681.00
2024-02-06T04:28:02.808Z,98674.00
2024-02-06T04:30:46.319Z,98671.00
2024-02-06T04:33:20.039Z,98663.00
2024-02-06T04:35:52.023Z,98666.00
2024-02-06T04:38:22.189Z,98677.00
2024-02-06T04:40:52.669Z,98683.00
2024-02-06T04:43:24.545Z,98685.00
2024-02-06T04:46:01.360Z,98691.00
2024-02-06T04:48:37.374Z,98680.00
2024-02-06T04:51:11.436Z,98683.00
2024-02-06T04:53:53.672Z,98686.00
2024-02-06T04:56:53.750Z,98691.00
2024-02-06T04:59:27.219Z,98693.00
2024-02-06T05:02:11.761Z,98692.00
2024-02-06T05:04:45.327Z,98693.00
2024-02-06T05:07:14.959Z,98697.00
2024-02-06T05:09:44.131Z,98699.00
2024-02-06T05:12:13.146Z,98705.00
2024-02-06T05:14:43.634Z,98712.00
2024-02-06T05:17:12.764Z,98722.00
2024-02-06T05:19:43.997Z,98716.00
2024-02-06T05:22:13.283Z,98722.00
2024-02-06T05:24:44.730Z,98712.00
2024-02-06T05:27:15.230Z,98729.00
2024-02-06T05:29:45.684Z,98739.00
2024-02-06T05:32:15.031Z,98728.00
2024-02-06T05:34:44.446Z,98723.00
2024-02-06T05:37:13.660Z,98725.00
2024-02-06T05:39:42.709Z,98731.00
2024-02-06T05:42:11.821Z,98748.00
2024-02-06T05:44:41.167Z,98733.00
2024-02-06T05:47:11.843Z,98735.00
2024-02-06T05:49:46.454Z,98751.00
2024-02-06T05:52:17.737Z,98751.00
2024-02-06T05:54:46.785Z,98755.00
2024-02-06T05:57:15.991Z,98761.00
2024-02-06T05:59:45.070Z,98763.00
2024-02-06T06:02:16.206Z,98767.00
2024-02-06T06:04:46.371Z,98765.00
2024-02-06T06:07:15.813Z,98779.00
2024-02-06T06:09:45.329Z,98776.00
2024-02-06T06:12:14.467Z,98775.00
2024-02-06T06:14:43.555Z,98793.00
2024-02-06T06:17:12.550Z,98780.00
2024-02-06T06:19:44.839Z,98782.00
2024-02-06T06:22:14.196Z,98783.00
2024-02-06T06:24:45.029Z,98791.00
2024-02-06T06:27:14.676Z,98796.00
2024-02-06T06:29:45.505Z,98800.00
2024-02-06T06:32:14.559Z,98809.00
2024-02-06T06:34:45.937Z,98818.00
2024-02-06T06:37:19.805Z,98817.00
2024-02-06T06:39:50.864Z,98819.00
2024-02-06T06:42:24.985Z,98825.00
2024-02-06T06:44:54.883Z,98826.00
2024-02-06T06:47:24.137Z,98828.00
2024-02-06T06:49:54.750Z,98828.00
2024-02-06T06:52:25.021Z,98830.00
2024-02-06T06:54:54.287Z,98832.00
2024-02-06T06:57:25.096Z,98830.00
2024-02-06T06:59:56.204Z,98828.00
2024-02-06T07:02:31.504Z,98819.00
2024-02-06T07:05:11.552Z,98832.00
2024-02-06T07:07:41.604Z,98835.00
2024-02-06T07:10:11.932Z,98831.00
2024-02-06T07:12:42.261Z,98834.00
2024-02-06T07:15:11.966Z,98842.00
2024-02-06T07:17:42.815Z,98844.00
2024-02-06T07:20:14.160Z,98844.00
2024-02-06T07:22:43.310Z,98854.00
2024-02-06T07:25:12.415Z,98846.00
2024-02-06T07:27:41.454Z,98863.00
2024-02-06T07:30:15.072Z,98866.00
2024-02-06T07:32:49.293Z,98868.00
2024-02-06T07:35:20.198Z,98874.00
2024-02-06T07:37:49.249Z,98877.00
2024-02-06T07:40:18.324Z,98879.00
2024-02-06T07:42:50.898Z,98879.00
2024-02-06T07:45:20.120Z,98878.00
2024-02-06T07:47:50.194Z,98877.00
2024-02-06T07:50:24.651Z,98874.00
2024-02-06T07:52:56.476Z,98883.00
2024-02-06T07:55:25.603Z,98894.00
2024-02-06T07:57:54.969Z,98876.00
2024-02-06T08:00:24.325Z,98874.00
2024-02-06T08:02:56.960Z,98890.00
2024-02-06T08:05:28.361Z,98903.00
2024-02-06T08:07:57.895Z,98911.00
2024-02-06T08:10:32.587Z,98907.00
2024-02-06T08:13:01.783Z,98926.00
2024-02-06T08:15:30.776Z,98913.00
2024-02-06T08:18:00.850Z,98932.00
2024-02-06T08:20:31.437Z,98926.00
2024-02-06T08:23:00.432Z,98935.00
2024-02-06T08:25:31.277Z,98941.00
2024-02-06T08:28:01.414Z,98943.00
2024-02-06T08:30:30.607Z,98949.00
2024-02-06T08:32:59.789Z,98955.00
2024-02-06T08:35:30.613Z,98965.00
2024-02-06T08:38:01.734Z,98961.00
2024-02-06T08:40:38.164Z,98967.00
2024-02-06T08:43:11.382Z,98973.00
2024-02-06T08:45:41.285Z,98966.00
2024-02-06T08:48:11.941Z,98971.00
2024-02-06T08:50:51.138Z,98959.00
2024-02-06T08:53:28.369Z,98977.00
2024-02-06T08:56:05.676Z,98976.00
2024-02-06T08:58:40.802Z,98987.00
2024-02-06T09:01:11.535Z,98997.00
2024-02-06T09:03:49.912Z,99008.00
2024-02-06T09:06:27.437Z,99011.00
2024-02-06T09:09:00.438Z,98992.00
2024-02-06T09:11:29.771Z,98994.00
2024-02-06T09:14:01.896Z,99017.00
2024-02-06T09:16:31.326Z,99018.00
2024-02-06T09:19:01.124Z,99008.00
2024-02-06T09:21:34.474Z,99012.00
2024-02-06T09:24:04.628Z,99011.00
2024-02-06T09:26:34.128Z,99015.00
2024-02-06T09:29:03.646Z,99024.00
2024-02-06T09:31:32.743Z,99021.00
2024-02-06T09:34:01.920Z,99032.00
2024-02-06T09:36:32.410Z,99031.00
2024-02-06T09:39:01.394Z,99028.00
2024-02-06T09:41:30.958Z,99023.00
2024-02-06T09:44:00.997Z,99033.00
2024-02-06T09:46:45.043Z,99039.00
2024-02-06T09:49:20.419Z,99043.00
2024-02-06T09:52:18.158Z,99035.00
2024-02-06T09:54:52.815Z,99044.00
2024-02-06T09:57:30.446Z,99050.00
2024-02-06T10:00:13.626Z,99033.00
2024-02-06T10:02:47.618Z,99044.00
2024-02-06T10:05:35.500Z,99038.00
2024-02-06T10:08:27.773Z,99055.00
2024-02-06T10:10:59.764Z,99053.00
2024-02-06T10:13:30.221Z,99050.00
2024-02-06T10:15:59.384Z,99033.00
2024-02-06T10:18:28.454Z,99050.00
2024-02-06T10:20:57.489Z,99050.00
2024-02-06T10:23:27.808Z,99065.00
2024-02-06T10:26:05.618Z,99053.00
2024-02-06T10:28:34.732Z,99060.00
2024-02-06T10:31:12.498Z,99056.00
2024-02-06T10:33:42.796Z,99057.00
2024-02-06T10:36:12.082Z,99060.00
2024-02-06T10:38:43.860Z,99064.00
2024-02-06T10:41:20.808Z,99065.00
2024-02-06T10:43:56.434Z,99072.00
2024-02-06T10:46:25.565Z,99062.00
2024-02-06T10:49:05.613Z,99068.00
2024-02-06T10:51:35.702Z,99078.00
2024-02-06T10:55:05.598Z,99069.00
2024-02-06T10:57:39.458Z,99065.00
2024-02-06T11:00:16.829Z,99069.00
2024-02-06T11:02:50.291Z,99070.00
2024-02-06T11:05:27.565Z,99067.00
2024-02-06T11:08:01.522Z,99067.00
2024-02-06T11:10:38.582Z,99067.00
2024-02-06T11:13:10.885Z,99059.00
2024-02-06T11:15:45.424Z,99050.00
2024-02-06T11:18:20.168Z,99059.00
2024-02-06T11:20:54.324Z,99067.00
2024-02-06T11:23:27.472Z,99070.00
2024-02-06T11:25:58.030Z,99072.00
2024-02-06T11:28:28.954Z,99072.00
2024-02-06T11:31:01.081Z,99072.00
2024-02-06T11:33:38.476Z,99077.00
2024-02-06T11:36:13.619Z,99069.00
2024-02-06T11:38:43.569Z,99076.00
2024-02-06T11:41:21.489Z,99097.00
2024-02-06T11:47:00.987Z,99105.00
2024-02-06T11:49:33.630Z,99107.00
2024-02-06T11:52:09.299Z,99104.00
2024-02-06T11:54:40.976Z,99116.00
2024-02-06T11:57:11.654Z,99123.00
2024-02-06T11:59:41.198Z,99120.00
2024-02-06T12:02:14.232Z,99134.00
2024-02-06T12:04:43.868Z,99132.00
2024-02-06T12:07:13.275Z,99125.00
2024-02-06T12:09:42.739Z,99130.00
2024-02-06T12:12:16.212Z,99135.00
2024-02-06T12:14:47.471Z,99138.00
2024-02-06T12:17:19.402Z,99142.00
2024-02-06T12:19:51.421Z,99136.00
2024-02-06T12:22:21.436Z,99149.00
2024-02-06T12:24:51.200Z,99149.00
2024-02-06T12:27:21.854Z,99146.00
2024-02-06T12:29:50.891Z,99151.00
2024-02-06T12:32:20.676Z,99170.00
2024-02-06T12:34:50.240Z,99160.00
2024-02-06T12:37:20.365Z,99163.00
2024-02-06T12:39:49.524Z,99166.00
2024-02-06T12:42:21.295Z,99163.00
2024-02-06T12:44:51.483Z,99164.00
2024-02-06T12:47:22.020Z,99159.00
2024-02-06T12:49:53.470Z,99156.00
2024-02-06T12:52:23.725Z,99161.00
2024-02-06T12:54:57.704Z,99168.00
2024-02-06T12:57:28.226Z,99166.00
2024-02-06T12:59:57.251Z,99179.00
2024-02-06T13:02:29.053Z,99167.00
2024-02-06T13:05:09.236Z,99164.00
2024-02-06T13:07:42.535Z,99165.00
2024-02-06T13:10:21.524Z,99169.00
2024-02-06T13:12:53.158Z,99176.00
2024-02-06T13:15:25.216Z,99165.00
2024-02-06T13:18:00.110Z,99165.00
2024-02-06T13:20:37.306Z,99157.00
2024-02-06T13:23:22.984Z,99164.00
2024-02-06T13:25:53.447Z,99171.00
2024-02-06T13:28:33.187Z,99181.00
2024-02-06T13:31:05.093Z,99178.00
2024-02-06T13:33:36.802Z,99183.00
2024-02-06T13:36:08.975Z,99188.00
2024-02-06T13:38:50.716Z,99184.00
2024-02-06T13:41:29.061Z,99186.00
2024-02-06T13:44:07.529Z,99185.00
2024-02-06T13:46:38.495Z,99195.00
2024-02-06T13:49:08.632Z,99190.00
2024-02-06T13:51:45.282Z,99193.00
2024-02-06T13:54:24.885Z,99197.00
2024-02-06T13:56:57.169Z,99199.00
2024-02-06T13:59:31.999Z,99198.00
2024-02-06T14:02:05.670Z,99196.00
2024-02-06T14:04:46.698Z,99203.00
2024-02-06T14:07:18.295Z,99209.00
2024-02-06T14:09:48.468Z,99201.00
2024-02-06T14:12:18.366Z,99201.00
2024-02-06T14:14:49.108Z,99213.00
2024-02-06T14:17:18.140Z,99211.00
2024-02-06T14:19:47.257Z,99230.00
2024-02-06T14:22:16.397Z,99215.00
2024-02-06T14:24:45.575Z,99210.00
2024-02-06T14:27:14.619Z,99215.00
2024-02-06T14:29:44.298Z,99218.00
2024-02-06T14:32:16.436Z,99215.00
2024-02-06T14:34:51.709Z,99220.00
2024-02-06T14:37:25.485Z,99227.00
2024-02-06T14:40:10.194Z,99229.00
2024-02-06T14:42:44.550Z,99229.00
2024-02-06T14:45:23.197Z,99235.00
2024-02-06T14:48:00.710Z,99238.00
2024-02-06T14:50:41.849Z,99233.00
2024-02-06T14:53:15.142Z,99235.00
2024-02-06T14:55:50.393Z,99242.00
2024-02-06T14:58:27.736Z,99237.00
2024-02-06T15:01:01.532Z,99233.00
2024-02-06T15:03:38.799Z,99238.00
2024-02-06T15:06:09.718Z,99239.00
2024-02-06T15:08:40.781Z,99229.00
2024-02-06T15:11:10.427Z,99226.00
2024-02-06T15:13:40.565Z,99230.00
2024-02-06T15:16:09.921Z,99234.00
2024-02-06T15:18:40.531Z,99241.00
2024-02-06T15:21:09.783Z,99227.00
2024-02-06T15:23:40.151Z,99226.00
2024-02-06T15:26:09.107Z,99237.00
2024-02-06T15:28:38.120Z,99238.00
2024-02-06T15:31:07.285Z,99233.00
2024-02-06T15:33:36.330Z,99234.00
2024-02-06T15:36:08.076Z,99240.00
2024-02-06T15:38:37.091Z,99235.00
2024-02-06T15:41:06.292Z,99240.00
2024-02-06T15:43:35.270Z,99239.00
2024-02-06T15:46:08.985Z,99245.00
2024-02-06T15:48:38.203Z,99243.00
2024-02-06T15:51:08.586Z,99246.00
2024-02-06T15:53:37.605Z,99251.00
2024-02-06T15:56:07.569Z,99240.00
2024-02-06T15:58:36.716Z,99237.00
2024-02-06T16:01:07.385Z,99233.00
2024-02-06T16:03:36.978Z,99229.00
2024-02-06T16:06:08.787Z,99238.00
2024-02-06T16:08:37.926Z,99232.00
2024-02-06T16:11:07.355Z,99249.00
2024-02-06T16:13:39.681Z,99244.00
2024-02-06T16:16:09.598Z,99242.00
2024-02-06T16:18:39.633Z,99245.00
2024-02-06T16:21:11.154Z,99235.00
2024-02-06T16:23:40.125Z,99231.00
2024-02-06T16:26:09.807Z,99229.00
2024-02-06T16:28:38.904Z,99231.00
2024-02-06T16:31:08.339Z,99233.00
2024-02-06T16:33:37.537Z,99227.00
2024-02-06T16:36:17.904Z,99234.00
2024-02-06T16:38:46.914Z,99233.00
2024-02-06T16:41:15.931Z,99233.00
2024-02-06T16:43:45.244Z,99244.00
2024-02-06T16:46:16.288Z,99237.00
2024-02-06T16:48:45.917Z,99237.00
2024-02-06T16:51:16.417Z,99241.00
2024-02-06T16:53:45.676Z,99240.00
2024-02-06T16:56:14.621Z,99229.00
2024-02-06T16:58:43.989Z,99238.00
2024-02-06T17:01:13.810Z,99234.00
2024-02-06T17:03:44.650Z,99228.00
2024-02-06T17:06:18.073Z,99225.00
2024-02-06T17:08:48.226Z,99220.00
2024-02-06T17:11:18.319Z,99223.00
2024-02-06T17:13:47.289Z,99224.00
2024-02-06T17:16:16.377Z,99221.00
2024-02-06T17:18:45.318Z,99221.00
2024-02-06T17:21:15.966Z,99217.00
2024-02-06T17:23:47.185Z,99229.00
2024-02-06T17:26:16.172Z,99222.00
2024-02-06T17:28:46.854Z,99223.00
2024-02-06T17:31:15.865Z,99234.00
2024-02-06T17:33:45.529Z,99233.00
2024-02-06T17:36:14.700Z,99233.00
2024-02-06T17:38:45.641Z,99235.00
2024-02-06T17:41:16.686Z,99219.00
2024-02-06T17:43:45.883Z,99226.00
2024-02-06T17:46:20.096Z,99229.00
2024-02-06T17:48:49.733Z,99226.00
2024-02-06T17:51:19.712Z,99214.00
2024-02-06T17:53:49.145Z,99224.00
2024-02-06T17:56:20.164Z,99223.00
2024-02-06T17:58:50.590Z,99222.00
2024-02-06T18:01:26.280Z,99220.00
2024-02-06T18:04:00.806Z,99227.00
2024-02-06T18:06:31.178Z,99220.00
2024-02-06T18:09:02.477Z,99221.00
2024-02-06T18:11:35.011Z,99231.00
2024-02-06T18:14:07.754Z,99224.00
2024-02-06T18:17:00.411Z,99231.00
2024-02-06T18:19:30.771Z,99223.00
2024-02-06T18:22:00.416Z,99216.00
2024-02-06T18:24:29.880Z,99222.00
2024-02-06T18:27:00.927Z,99215.00
2024-02-06T18:29:29.982Z,99212.00
2024-02-06T18:32:03.370Z,99210.00
2024-02-06T18:34:33.580Z,99208.00
2024-02-06T18:37:04.701Z,99222.00
2024-02-06T18:39:35.754Z,99217.00
2024-02-06T18:42:10.199Z,99224.00
2024-02-06T18:44:41.183Z,99218.00
2024-02-06T18:47:10.876Z,99222.00
2024-02-06T18:49:42.133Z,99212.00
2024-02-06T18:52:16.672Z,99216.00
2024-02-06T18:54:52.396Z,99229.00
2024-02-06T18:57:28.059Z,99226.00
2024-02-06T18:59:58.744Z,99219.00
2024-02-06T19:02:28.181Z,99219.00
2024-02-06T19:04:58.224Z,99217.00
2024-02-06T19:07:36.333Z,99209.00
2024-02-06T19:10:07.294Z,99212.00
2024-02-06T19:12:39.623Z,99210.00
2024-02-06T19:15:10.926Z,99216.00
2024-02-06T19:17:40.688Z,99203.00
2024-02-06T19:20:12.402Z,99218.00
2024-02-06T19:22:41.443Z,99212.00
2024-02-06T19:25:14.137Z,99207.00
2024-02-06T19:27:45.929Z,99222.00
2024-02-06T19:30:16.077Z,99218.00
2024-02-06T19:32:45.154Z,99217.00
2024-02-06T19:35:15.688Z,99213.00
2024-02-06T19:37:44.903Z,99213.00
2024-02-06T19:40:14.993Z,99211.00
2024-02-06T19:42:45.566Z,99212.00
2024-02-06T19:45:15.867Z,99209.00
2024-02-06T19:47:48.927Z,99208.00
2024-02-06T19:50:18.329Z,99210.00
2024-02-06T19:52:52.833Z,99205.00
2024-02-06T19:55:25.607Z,99193.00
2024-02-06T19:58:13.862Z,99205.00
2024-02-06T20:00:44.408Z,99203.00
2024-02-06T20:03:13.956Z,99201.00
2024-02-06T20:05:44.658Z,99196.00
2024-02-06T20:08:18.216Z,99207.00
2024-02-06T20:10:51.880Z,99208.00
2024-02-06T20:13:26.110Z,99211.00
2024-02-06T20:15:55.736Z,99206.00
2024-02-06T20:18:25.400Z,99191.00
2024-02-06T20:20:55.698Z,99189.00
2024-02-06T20:23:27.456Z,99191.00
2024-02-06T20:25:56.658Z,99190.00
2024-02-06T20:28:29.350Z,99185.00
2024-02-06T20:30:59.248Z,99183.00
2024-02-06T20:33:29.793Z,99193.00
2024-02-06T20:36:13.381Z,99185.00
2024-02-06T20:38:48.416Z,99185.00
2024-02-06T20:41:20.105Z,99180.00
2024-02-06T20:44:11.718Z,99187.00
2024-02-06T20:46:42.124Z,99179.00
2024-02-06T20:49:14.184Z,99180.00
2024-02-06T20:51:48.112Z,99168.00
2024-02-06T20:54:17.434Z,99187.00
2024-02-06T20:56:48.034Z,99182.00
2024-02-06T20:59:18.455Z,99179.00
2024-02-06T21:01:51.670Z,99181.00
2024-02-06T21:04:22.532Z,99193.00
2024-02-06T21:07:03.205Z,99200.00
2024-02-06T21:09:33.847Z,99201.00
2024-02-06T21:12:04.719Z,99195.00
2024-02-06T21:14:37.440Z,99185.00
2024-02-06T21:17:11.696Z,99194.00
2024-02-06T21:19:41.466Z,99201.00
2024-02-06T21:22:10.995Z,99204.00
2024-02-06T21:24:39.967Z,99194.00
2024-02-06T21:27:13.233Z,99198.00
2024-02-06T21:29:44.524Z,99199.00
2024-02-06T21:32:15.310Z,99193.00
2024-02-06T21:34:44.713Z,99191.00
2024-02-06T21:37:13.986Z,99192.00
2024-02-06T21:39:45.274Z,99191.00
2024-02-06T21:42:14.373Z,99194.00
2024-02-06T21:44:44.802Z,99196.00
2024-02-06T21:47:13.886Z,99188.00
2024-02-06T21:49:44.170Z,99187.00
2024-02-06T21:52:14.119Z,99185.00
2024-02-06T21:54:43.144Z,99180.00
2024-02-06T21:57:16.212Z,99170.00
2024-02-06T21:59:51.128Z,99167.00
2024-02-06T22:02:22.584Z,99172.00
2024-02-06T22:04:52.081Z,99163.00
2024-02-06T22:07:25.156Z,99160.00
2024-02-06T22:09:57.371Z,99171.00
2024-02-06T22:12:26.864Z,99164.00
2024-02-06T22:14:57.274Z,99160.00
2024-02-06T22:17:26.307Z,99150.00
2024-02-06T22:19:55.407Z,99152.00
2024-02-06T22:22:25.296Z,99159.00
2024-02-06T22:24:54.454Z,99154.00
2024-02-06T22:27:23.652Z,99148.00
2024-02-06T22:29:58.831Z,99140.00
2024-02-06T22:32:33.954Z,99141.00
2024-02-06T22:35:04.457Z,99127.00
2024-02-06T22:37:33.647Z,99131.00
2024-02-06T22:40:05.276Z,99124.00
2024-02-06T22:42:34.590Z,99115.00
2024-02-06T22:45:03.672Z,99119.00
2024-02-06T22:47:35.164Z,99112.00
2024-02-06T22:50:04.463Z,99102.00
2024-02-06T22:52:34.156Z,99098.00
2024-02-06T22:55:03.891Z,99101.00
2024-02-06T22:57:36.599Z,99102.00
2024-02-06T23:00:09.652Z,99088.00
2024-02-06T23:02:40.245Z,99085.00
2024-02-06T23:05:12.987Z,99080.00
2024-02-06T23:07:45.266Z,99082.00
2024-02-06T23:10:14.335Z,99077.00
2024-02-06T23:12:44.131Z,99075.00
2024-02-06T23:15:13.220Z,99062.00
2024-02-06T23:17:43.929Z,99064.00
2024-02-06T23:20:13.833Z,99063.00
2024-02-06T23:22:43.620Z,99064.00
2024-02-06T23:25:12.887Z,99055.00
2024-02-06T23:27:42.088Z,99051.00
2024-02-06T23:30:13.723Z,99049.00
2024-02-06T23:32:44.779Z,99055.00
2024-02-06T23:35:14.036Z,99054.00
2024-02-06T23:37:43.072Z,99062.00
2024-02-06T23:40:13.509Z,99058.00
2024-02-06T23:42:42.635Z,99049.00
2024-02-06T23:45:12.415Z,99049.00
2024-02-06T23:47:41.495Z,99057.00
2024-02-06T23:50:12.892Z,99051.00
2024-02-06T23:52:42.062Z,99047.00
2024-02-06T23:55:12.065Z,99053.00
2024-02-06T23:57:44.846Z,99058.00
